Time;durP1;ratioP1;P1;durP2;ratioP2;P2;SDS_P1;SDS_P2;PMS_P1;PMS_P2;Temp;Humidity;BMP_temperature;BMP_pressure;BME280_temperature;BME280_humidity;BME280_pressure;Samples;Min_cycle;Max_cycle;Signal;HPM_P1;HPM_P2
2023/10/17 00:03:21;;;;;;;;;;;9.00;49.00;;;7.60;52.79;101798.03;12259780;19;20337;-85
2023/10/17 00:07:22;;;;;;;;;;;9.00;49.10;;;7.36;52.93;101761.38;12257848;19;19919;-84
2023/10/17 00:11:32;;;;;;;;;;;8.90;49.10;;;7.72;52.89;101810.69;12258582;19;19933;-85
2023/10/17 00:15:37;;;;;;;;;;;9.00;49.20;;;7.65;53.00;101798.78;12261556;19;19919;-84
2023/10/17 00:19:41;;;;;;;;;;;9.00;49.30;;;7.69;53.14;101802.97;12258310;19;19919;-85
2023/10/17 00:23:43;;;;;;;;;;;9.00;49.30;;;7.80;53.04;101821.75;12258503;19;19923;-85
2023/10/17 00:27:44;;;;;;;;;;;9.20;49.50;;;7.80;53.17;101813.94;12255217;19;19915;-84
2023/10/17 00:31:46;;;;;;;;;;;9.00;49.40;;;7.67;52.97;101799.56;12258052;19;19927;-85
2023/10/17 00:35:48;;;;;;;;;;;9.40;49.50;;;7.74;53.01;101808.91;12256279;19;19933;-85
2023/10/17 00:39:50;;;;;;;;;;;9.00;49.30;;;7.69;53.21;101798.63;12253817;19;20367;-84
2023/10/17 00:43:53;;;;;;;;;;;9.20;49.50;;;7.75;53.08;101808.03;12257718;19;19929;-84
2023/10/17 00:47:55;;;;;;;;;;;9.10;49.50;;;7.81;53.14;101812.22;12264043;19;19931;-84
2023/10/17 00:52:00;;;;;;;;;;;9.10;49.50;;;7.73;53.33;101799.44;12268907;19;19915;-85
2023/10/17 00:56:02;;;;;;;;;;;9.10;49.50;;;7.79;53.19;101811.41;12268182;19;19915;-85
2023/10/17 01:00:16;;;;;;;;;;;9.10;49.50;;;7.76;53.10;101799.34;12265730;19;19915;-85
2023/10/17 01:04:19;;;;;;;;;;;9.10;49.50;;;7.80;53.15;101810.50;12268422;19;19918;-84
2023/10/17 01:13:02;;;;;;;;;;;9.10;49.40;;;7.70;52.99;101805.56;12265652;19;19936;-85
2023/10/17 01:17:15;;;;;;;;;;;9.00;49.40;;;7.69;53.21;101805.59;12265269;19;19922;-85
2023/10/17 01:21:20;;;;;;;;;;;9.00;49.40;;;7.60;53.28;101796.28;12265706;19;19911;-85
2023/10/17 01:25:29;;;;;;;;;;;9.00;49.40;;;7.66;53.30;101800.47;12268107;19;19949;-85
2023/10/17 01:29:31;;;;;;;;;;;9.00;49.40;;;7.50;53.27;101774.84;12266809;19;19921;-84
2023/10/17 01:33:33;;;;;;;;;;;9.00;49.50;;;7.59;53.25;101785.91;12269196;19;19991;-85
2023/10/17 01:37:40;;;;;;;;;;;9.00;49.50;;;7.69;53.48;101798.63;12267251;19;19931;-84
2023/10/17 01:41:48;;;;;;;;;;;9.00;49.60;;;7.68;53.46;101793.50;12269009;19;19926;-85
2023/10/17 01:45:50;;;;;;;;;;;9.00;49.60;;;7.56;53.42;101768.66;12263439;19;19971;-85
2023/10/17 01:49:52;;;;;;;;;;;9.00;49.50;;;7.65;53.19;101785.78;12263898;19;19919;-85
2023/10/17 01:53:55;;;;;;;;;;;9.00;49.50;;;7.60;53.36;101783.28;12266936;19;19936;-85
2023/10/17 01:57:57;;;;;;;;;;;9.00;49.60;;;7.61;53.41;101786.72;12264736;19;19924;-85
2023/10/17 02:01:59;;;;;;;;;;;9.00;49.50;;;7.34;53.32;101738.91;12264226;19;19926;-85
2023/10/17 02:06:01;;;;;;;;;;;8.90;49.50;;;7.52;53.17;101777.44;12263300;19;19936;-84
2023/10/17 02:10:07;;;;;;;;;;;8.90;49.50;;;7.58;53.46;101781.63;12261756;19;19919;-85
2023/10/17 02:14:09;;;;;;;;;;;8.90;49.50;;;7.58;53.56;101774.66;12265969;19;19929;-85
2023/10/17 02:18:15;;;;;;;;;;;8.90;49.60;;;7.43;53.29;101752.53;12260354;19;19922;-85
2023/10/17 02:22:17;;;;;;;;;;;9.10;49.70;;;7.48;53.33;101770.59;12265163;19;20230;-85
2023/10/17 02:26:22;;;;;;;;;;;8.90;49.50;;;7.58;53.44;101794.59;12263031;19;19926;-85
2023/10/17 02:30:24;;;;;;;;;;;8.90;49.50;;;7.56;53.28;101796.38;12261824;19;19923;-85
2023/10/17 02:34:29;;;;;;;;;;;8.90;49.50;;;7.39;53.40;101768.22;12263865;19;19915;-84
2023/10/17 02:38:31;;;;;;;;;;;8.90;49.50;;;7.47;53.29;101779.28;12263245;19;19923;-85
2023/10/17 02:42:34;;;;;;;;;;;8.90;49.60;;;7.52;53.51;101801.66;12263730;19;19930;-85
2023/10/17 02:46:36;;;;;;;;;;;8.90;49.50;;;7.18;53.43;101738.44;12256787;19;19923;-85
2023/10/17 02:54:56;;;;;;;;;;;8.80;49.50;;;7.46;53.37;101801.81;12261371;19;19935;-85
2023/10/17 02:59:04;;;;;;;;;;;8.80;49.60;;;7.37;53.67;101783.88;12261377;19;19931;-85
2023/10/17 03:03:12;;;;;;;;;;;8.80;49.60;;;7.44;53.48;101792.38;12261962;19;19939;-84
2023/10/17 03:07:15;;;;;;;;;;;8.80;49.60;;;7.22;53.28;101755.66;12259877;19;20255;-84
2023/10/17 03:11:35;;;;;;;;;;;8.80;49.60;;;7.40;53.39;101795.91;12255524;19;20345;-84
2023/10/17 03:15:38;;;;;;;;;;;8.80;49.60;;;7.38;53.61;101789.91;12262634;19;19926;-85
2023/10/17 03:19:39;;;;;;;;;;;8.80;49.70;;;7.40;53.53;101789.00;12259985;19;19923;-85
2023/10/17 03:23:46;;;;;;;;;;;8.70;49.70;;;6.88;53.39;101707.13;12258269;19;19919;-85
2023/10/17 03:27:49;;;;;;;;;;;8.80;49.70;;;7.36;53.41;101792.53;12255613;19;20330;-85
2023/10/17 03:31:58;;;;;;;;;;;8.70;49.70;;;6.99;53.60;101730.25;12257086;19;20272;-85
2023/10/17 03:40:16;;;;;;;;;;;8.70;49.80;;;7.18;53.73;101769.59;12257107;19;19934;-85
2023/10/17 03:44:17;;;;;;;;;;;8.70;49.80;;;7.20;53.59;101773.88;12259404;19;19915;-85
2023/10/17 03:48:21;;;;;;;;;;;8.70;49.80;;;7.31;53.66;101792.66;12258303;19;20000;-85
2023/10/17 03:52:22;;;;;;;;;;;8.70;49.80;;;7.31;53.71;101791.81;12259240;19;19927;-85
2023/10/17 03:56:24;;;;;;;;;;;8.70;49.90;;;7.26;53.52;101784.16;12259436;19;19953;-85
2023/10/17 04:00:41;;;;;;;;;;;8.70;50.00;;;7.28;53.71;101794.47;12255214;19;19926;-85
2023/10/17 04:04:55;;;;;;;;;;;8.70;50.00;;;7.11;53.60;101755.94;12256496;19;20333;-85
2023/10/17 04:09:17;;;;;;;;;;;8.60;49.90;;;7.07;53.56;101765.56;12244481;19;19943;-85
2023/10/17 04:13:23;;;;;;;;;;;8.60;50.00;;;6.86;53.76;101729.69;12255106;19;20708;-85
2023/10/17 04:17:29;;;;;;;;;;;8.60;50.00;;;7.12;53.54;101772.38;12254301;19;20427;-85
2023/10/17 04:21:45;;;;;;;;;;;8.80;50.30;;;7.26;53.98;101802.31;12257189;19;20274;-85
2023/10/17 04:25:54;;;;;;;;;;;8.60;50.20;;;7.21;53.82;101775.59;12267543;19;19918;-85
2023/10/17 04:29:57;;;;;;;;;;;8.70;50.30;;;7.14;53.93;101771.44;12257301;19;19915;-85
2023/10/17 04:34:09;;;;;;;;;;;8.70;50.40;;;7.29;53.87;101790.97;12255188;19;19923;-85
2023/10/17 04:38:19;;;;;;;;;;;8.70;50.50;;;7.28;53.94;101777.13;12262508;19;20334;-85
2023/10/17 04:55:22;;;;;;;;;;;8.80;50.60;;;7.47;54.02;101808.72;12262973;19;19919;-85
2023/10/17 04:59:43;;;;;;;;;;;8.90;50.60;;;7.20;54.31;101747.06;12258943;19;19948;-85
2023/10/17 05:03:50;;;;;;;;;;;8.90;50.90;;;7.56;54.00;101812.88;12261011;19;19922;-85
2023/10/17 05:07:58;;;;;;;;;;;8.90;50.90;;;7.56;54.08;101801.59;12254918;19;20297;-85
2023/10/17 06:17:06;;;;;;;;;;;9.40;50.80;;;8.03;54.19;101864.53;12253770;19;19914;-85
2023/10/17 06:22:35;;;;;;;;;;;9.40;50.90;;;8.00;54.26;101856.81;12252632;19;19922;-84
2023/10/17 06:33:55;;;;;;;;;;;9.50;51.00;;;8.06;54.33;101865.28;12258181;19;19918;-85
2023/10/17 06:38:00;;;;;;;;;;;9.60;51.10;;;7.81;54.43;101820.03;12259509;19;19911;-84
2023/10/17 06:42:49;;;;;;;;;;;9.60;51.20;;;8.21;54.36;101871.84;12255097;19;19927;-83
2023/10/17 06:46:30;;;;;;;;;;;9.60;51.20;;;8.16;54.38;101860.72;12251775;19;19915;-84
2023/10/17 06:51:29;;;;;;;;;;;9.70;51.20;;;8.06;54.61;101843.63;12257507;19;20313;-86
2023/10/17 06:54:59;;;;;;;;;;;9.70;51.60;;;8.32;54.51;101874.16;12258709;19;19930;-85
2023/10/17 06:59:04;;;;;;;;;;;9.80;51.30;;;8.31;54.58;101865.47;12257854;19;19982;-84
2023/10/17 07:03:07;;;;;;;;;;;9.80;51.30;;;8.33;54.50;101865.44;12259967;19;19926;-84
2023/10/17 07:07:13;;;;;;;;;;;9.90;51.40;;;8.44;54.79;101879.06;12251789;19;19923;-85
2023/10/17 07:15:19;;;;;;;;;;;10.00;51.40;;;8.37;54.80;101843.63;12253887;19;19922;-84
2023/10/17 07:23:27;;;;;;;;;;;10.10;51.60;;;8.72;54.62;101889.56;12253978;19;19914;-84
2023/10/17 07:27:33;;;;;;;;;;;10.20;51.60;;;8.82;54.71;101896.19;12250693;19;19903;-84
2023/10/17 07:31:36;;;;;;;;;;;10.30;51.70;;;8.57;54.74;101838.75;12252926;19;19918;-84
2023/10/17 07:35:38;;;;;;;;;;;10.30;51.70;;;8.95;54.84;101886.25;12251604;19;19919;-84
2023/10/17 07:39:39;;;;;;;;;;;10.40;51.80;;;9.06;54.89;101899.81;12218926;19;19919;-84
2023/10/17 07:43:44;;;;;;;;;;;10.50;51.80;;;9.03;54.85;101875.63;12247602;19;19951;-84
2023/10/17 07:47:54;;;;;;;;;;;10.80;51.90;;;9.14;54.90;101873.53;12244593;19;19922;-85
2023/10/17 07:51:58;;;;;;;;;;;10.60;51.90;;;9.15;54.78;101867.41;12252015;19;20411;-85
2023/10/17 07:56:04;;;;;;;;;;;10.70;52.00;;;9.17;54.98;101860.41;12242900;19;19923;-85
2023/10/17 08:04:36;;;;;;;;;;;10.80;52.00;;;9.41;54.85;101870.97;12250949;19;19914;-84
2023/10/17 08:08:44;;;;;;;;;;;10.90;52.00;;;9.50;54.85;101878.50;12252786;19;20353;-85
2023/10/17 08:12:45;;;;;;;;;;;11.00;52.00;;;9.59;55.09;101879.97;12253350;19;20760;-85
2023/10/17 08:16:49;;;;;;;;;;;11.20;52.30;;;9.47;54.88;101849.91;12253650;19;19915;-85
2023/10/17 08:25:13;;;;;;;;;;;11.30;52.30;;;9.84;55.06;101895.66;12249801;19;19926;-84
2023/10/17 08:29:20;;;;;;;;;;;11.30;52.30;;;9.85;55.08;101877.31;12249804;19;19990;-85
2023/10/17 08:33:36;;;;;;;;;;;11.40;52.80;;;10.07;55.17;101892.25;12249926;19;19938;-85
2023/10/17 08:37:43;;;;;;;;;;;11.50;52.40;;;9.96;55.15;101849.13;12252041;19;19935;-85
2023/10/17 08:41:45;;;;;;;;;;;11.60;52.50;;;10.19;55.37;101870.97;12257501;19;19982;-85
2023/10/17 08:45:49;;;;;;;;;;;11.70;52.50;;;10.31;55.25;101886.22;12251647;19;19918;-84
2023/10/17 08:49:51;;;;;;;;;;;11.80;52.70;;;10.50;55.31;101886.41;12250394;19;19961;-84
2023/10/17 08:53:54;;;;;;;;;;;12.00;53.00;;;10.57;55.27;101884.44;12257691;19;19929;-84
2023/10/17 08:57:55;;;;;;;;;;;12.10;52.90;;;10.72;55.19;101888.22;12252641;19;19919;-84
2023/10/17 09:02:14;;;;;;;;;;;12.20;53.00;;;10.79;55.28;101882.72;12254371;19;19918;-85
2023/10/17 09:10:30;;;;;;;;;;;12.40;52.90;;;10.96;55.34;101858.56;12256440;19;19927;-85
2023/10/17 09:14:40;;;;;;;;;;;12.70;53.10;;;11.14;55.59;101877.06;12262574;19;20260;-85
2023/10/17 09:18:49;;;;;;;;;;;12.70;52.90;;;11.28;55.32;101886.06;12262753;19;19919;-85
2023/10/17 09:22:51;;;;;;;;;;;12.80;52.80;;;11.48;55.61;101892.28;12260601;19;19986;-83
2023/10/17 09:26:56;;;;;;;;;;;12.90;52.90;;;11.42;55.69;101848.03;12259430;19;19919;-84
2023/10/17 09:31:15;;;;;;;;;;;13.10;52.90;;;11.77;55.61;101885.84;12261087;19;19940;-84
2023/10/17 09:35:19;;;;;;;;;;;13.20;53.00;;;11.74;55.47;101862.41;12263634;19;19950;-84
2023/10/17 09:39:27;;;;;;;;;;;13.40;53.00;;;11.92;55.57;101866.91;12261770;19;19922;-83
2023/10/17 09:43:29;;;;;;;;;;;13.50;52.70;;;12.11;55.48;101876.59;12265016;19;19915;-83
2023/10/17 09:47:31;;;;;;;;;;;13.60;52.80;;;11.95;55.53;101835.38;12254670;19;20309;-83
2023/10/17 09:51:33;;;;;;;;;;;13.70;52.60;;;12.22;55.40;101857.81;12253830;19;19934;-85
2023/10/17 09:55:36;;;;;;;;;;;13.80;52.50;;;12.44;55.46;101873.44;12259298;19;19942;-84
2023/10/17 09:59:41;;;;;;;;;;;13.90;52.30;;;12.52;55.68;101874.78;12256661;19;19923;-84
2023/10/17 10:03:45;;;;;;;;;;;14.10;52.60;;;12.70;55.71;101877.50;12259953;19;19932;-84
2023/10/17 10:07:47;;;;;;;;;;;14.20;52.60;;;12.79;55.65;101869.19;12255559;19;19934;-84
2023/10/17 10:11:48;;;;;;;;;;;14.30;52.50;;;12.96;55.54;101868.41;12261683;19;19934;-84
2023/10/17 10:15:53;;;;;;;;;;;14.50;52.10;;;13.09;55.66;101863.44;12260483;19;20346;-84
2023/10/17 10:19:55;;;;;;;;;;;14.60;52.00;;;13.21;55.59;101855.00;12260053;19;19919;-84
2023/10/17 10:23:57;;;;;;;;;;;14.70;51.80;;;13.30;55.69;101848.50;12261337;19;20016;-83
2023/10/17 10:28:25;;;;;;;;;;;14.80;51.70;;;13.43;55.43;101833.84;12255985;19;19915;-84
2023/10/17 10:32:33;;;;;;;;;;;14.90;51.60;;;13.40;55.35;101818.25;12258396;19;19915;-84
2023/10/17 10:36:34;;;;;;;;;;;15.00;51.40;;;13.48;55.43;101827.44;12260260;19;19926;-84
2023/10/17 10:40:40;;;;;;;;;;;15.00;51.00;;;13.54;55.33;101831.53;12258222;19;19954;-84
2023/10/17 10:44:41;;;;;;;;;;;15.10;50.90;;;13.59;55.26;101824.28;12257801;19;19922;-84
2023/10/17 10:48:53;;;;;;;;;;;15.10;51.00;;;13.58;55.28;101827.81;12255091;19;19922;-83
2023/10/17 10:52:56;;;;;;;;;;;15.10;50.80;;;13.67;55.27;101827.38;12257155;19;19935;-83
2023/10/17 10:56:58;;;;;;;;;;;15.10;50.70;;;13.71;55.27;101828.06;12258006;19;20348;-84
2023/10/17 11:01:02;;;;;;;;;;;15.20;50.60;;;13.61;55.15;101814.56;12256164;19;19933;-83
2023/10/17 11:05:10;;;;;;;;;;;15.20;50.30;;;13.72;55.18;101822.75;12254208;19;19965;-84
2023/10/17 11:09:16;;;;;;;;;;;15.20;50.20;;;13.77;55.12;101819.91;12255223;19;19923;-84
2023/10/17 11:13:18;;;;;;;;;;;15.20;50.20;;;13.69;55.07;101799.28;12258481;19;20357;-84
2023/10/17 11:17:23;;;;;;;;;;;15.30;50.40;;;13.56;55.10;101774.59;12256824;19;19923;-84
2023/10/17 11:21:25;;;;;;;;;;;15.30;50.30;;;13.79;54.92;101801.41;12255231;19;19926;-84
2023/10/17 11:25:27;;;;;;;;;;;15.30;50.10;;;13.74;54.93;101780.66;12256047;19;19982;-84
2023/10/17 11:29:28;;;;;;;;;;;15.30;50.10;;;13.66;55.03;101769.69;12253325;19;19934;-84
2023/10/17 11:33:37;;;;;;;;;;;15.30;50.20;;;13.87;54.90;101807.97;12253182;19;19919;-83
2023/10/17 11:37:47;;;;;;;;;;;15.30;50.20;;;13.91;54.89;101804.28;12255876;19;19943;-83
2023/10/17 11:41:53;;;;;;;;;;;15.40;50.10;;;13.86;54.86;101784.44;12250190;19;19921;-84
2023/10/17 11:45:59;;;;;;;;;;;15.40;49.90;;;13.90;54.78;101792.06;12251131;19;19946;-84
2023/10/17 11:50:01;;;;;;;;;;;15.40;49.90;;;13.97;54.70;101802.25;12250329;19;19914;-84
2023/10/17 11:54:07;;;;;;;;;;;15.40;49.70;;;13.89;54.69;101779.84;12250616;19;19923;-82
2023/10/17 11:58:10;;;;;;;;;;;15.40;49.80;;;13.95;54.71;101778.69;12255345;19;19923;-83
2023/10/17 12:02:14;;;;;;;;;;;15.40;49.80;;;13.98;54.53;101781.16;12251487;19;19935;-83
2023/10/17 12:06:16;;;;;;;;;;;15.40;49.70;;;13.90;54.62;101762.31;12252970;19;19922;-83
2023/10/17 12:10:18;;;;;;;;;;;15.40;49.80;;;14.01;54.73;101775.72;12252303;19;20342;-83
2023/10/17 12:14:21;;;;;;;;;;;15.40;49.70;;;13.99;54.57;101766.22;12252524;19;19923;-84
2023/10/17 12:18:24;;;;;;;;;;;15.50;49.60;;;14.05;54.56;101773.81;12252288;19;19921;-84
2023/10/17 12:22:26;;;;;;;;;;;15.40;49.50;;;14.10;54.51;101772.63;12251860;19;19914;-84
2023/10/17 12:26:28;;;;;;;;;;;15.50;49.50;;;13.91;54.29;101741.25;12250308;19;19915;-84
2023/10/17 12:30:35;;;;;;;;;;;15.50;49.50;;;14.08;54.40;101763.97;12249615;19;19927;-83
2023/10/17 12:34:39;;;;;;;;;;;15.50;49.10;;;14.09;54.40;101762.19;12252340;19;20064;-84
2023/10/17 12:38:41;;;;;;;;;;;15.50;48.50;;;13.79;54.15;101706.91;12251790;19;20019;-83
2023/10/17 12:42:42;;;;;;;;;;;15.40;48.60;;;14.07;54.15;101757.03;12253756;19;19922;-84
2023/10/17 12:46:44;;;;;;;;;;;15.40;48.90;;;14.09;54.18;101760.41;12261314;19;19919;-84
2023/10/17 12:50:46;;;;;;;;;;;15.40;48.90;;;14.05;54.11;101751.03;12262436;19;19943;-83
2023/10/17 12:54:47;;;;;;;;;;;15.40;49.20;;;14.09;54.22;101739.41;12267135;19;19933;-84
2023/10/17 12:58:48;;;;;;;;;;;15.40;48.70;;;14.09;54.06;101744.66;12264002;19;19919;-84
2023/10/17 13:02:52;;;;;;;;;;;15.40;48.80;;;14.09;54.02;101733.31;12266667;19;19923;-84
2023/10/17 13:06:53;;;;;;;;;;;15.40;49.00;;;13.87;54.09;101686.34;12263586;19;19914;-83
2023/10/17 13:10:55;;;;;;;;;;;15.50;49.00;;;14.17;54.06;101725.84;12261763;19;20041;-83
2023/10/17 13:14:56;;;;;;;;;;;15.50;49.00;;;13.91;53.98;101667.72;12268508;19;19919;-84
2023/10/17 13:19:05;;;;;;;;;;;15.50;49.00;;;14.24;54.02;101721.97;12263259;19;20300;-84
2023/10/17 13:23:07;;;;;;;;;;;15.50;48.80;;;14.25;53.89;101714.94;12265625;19;19934;-82
2023/10/17 13:27:09;;;;;;;;;;;15.50;48.20;;;14.10;53.88;101688.59;12259143;19;19927;-84
2023/10/17 13:31:11;;;;;;;;;;;15.50;48.30;;;13.95;54.07;101660.50;12260662;19;19919;-84
2023/10/17 13:35:12;;;;;;;;;;;15.50;48.70;;;14.16;53.80;101693.50;12257868;19;19950;-84
2023/10/17 13:39:15;;;;;;;;;;;15.50;48.90;;;14.21;53.85;101692.41;12255446;19;19919;-83
2023/10/17 13:43:17;;;;;;;;;;;15.50;48.70;;;14.24;53.86;101695.69;12266778;19;19934;-84
2023/10/17 13:47:20;;;;;;;;;;;15.50;49.00;;;14.09;53.83;101681.63;12255981;19;19926;-84
2023/10/17 13:51:22;;;;;;;;;;;15.50;49.00;;;14.25;53.71;101704.44;12259804;19;20459;-84
2023/10/17 13:55:27;;;;;;;;;;;15.50;49.30;;;14.26;53.68;101709.63;12253861;19;19919;-84
2023/10/17 13:59:46;;;;;;;;;;;15.50;48.70;;;14.09;53.61;101671.09;12259460;19;19919;-84
2023/10/17 14:03:48;;;;;;;;;;;15.60;48.90;;;14.19;53.63;101686.38;12258606;19;20624;-83
2023/10/17 14:07:51;;;;;;;;;;;15.50;48.80;;;14.24;53.62;101689.59;12260024;19;19923;-83
2023/10/17 14:11:53;;;;;;;;;;;15.50;48.80;;;14.29;53.62;101693.69;12263435;19;19967;-83
2023/10/17 14:15:55;;;;;;;;;;;15.60;48.80;;;14.26;53.53;101690.38;12260024;19;19915;-83
2023/10/17 14:20:05;;;;;;;;;;;15.60;48.90;;;14.33;53.50;101684.66;12255557;19;19936;-84
2023/10/17 14:25:07;;;;;;;;;;;15.60;49.00;;;14.25;53.43;101676.38;12259795;19;20271;-83
2023/10/17 14:28:37;;;;;;;;;;;15.60;48.80;;;14.06;53.56;101644.16;12257694;19;19914;-83
2023/10/17 14:32:39;;;;;;;;;;;15.60;48.50;;;14.30;53.39;101673.50;12261939;19;19935;-84
2023/10/17 14:36:40;;;;;;;;;;;15.60;48.40;;;14.18;53.47;101664.53;12260791;19;20694;-84
2023/10/17 14:40:42;;;;;;;;;;;15.50;48.50;;;14.05;53.37;101627.56;12253588;19;20302;-83
2023/10/17 14:44:45;;;;;;;;;;;15.60;48.60;;;14.28;53.47;101664.84;12258214;19;20012;-84
2023/10/17 14:48:47;;;;;;;;;;;15.50;48.70;;;14.31;53.34;101665.53;12257956;19;19943;-83
2023/10/17 14:52:49;;;;;;;;;;;15.50;48.70;;;14.30;53.36;101665.63;12257931;19;19926;-83
2023/10/17 14:56:53;;;;;;;;;;;15.60;48.80;;;14.18;53.31;101646.13;12256564;19;20270;-83
2023/10/17 15:00:55;;;;;;;;;;;15.50;48.80;;;14.23;53.33;101669.50;12252622;19;19926;-83
2023/10/17 15:04:57;;;;;;;;;;;15.50;48.90;;;14.21;53.25;101676.66;12254603;19;19919;-83
2023/10/17 15:08:58;;;;;;;;;;;15.50;49.10;;;14.17;53.22;101679.41;12257080;19;19922;-83
2023/10/17 15:12:59;;;;;;;;;;;15.40;49.10;;;14.15;53.13;101677.84;12257238;19;19956;-82
2023/10/17 15:17:01;;;;;;;;;;;15.40;49.20;;;14.12;53.23;101680.59;12255978;19;19943;-84
2023/10/17 15:21:08;;;;;;;;;;;15.40;49.30;;;14.09;53.26;101686.03;12257090;19;19919;-84
2023/10/17 15:25:12;;;;;;;;;;;15.30;49.30;;;13.96;53.13;101672.72;12251517;19;19960;-84
2023/10/17 15:29:14;;;;;;;;;;;15.20;49.30;;;13.91;52.93;101667.72;12248904;19;19919;-82
2023/10/17 15:33:17;;;;;;;;;;;15.20;49.40;;;13.91;53.07;101672.13;12254247;19;19958;-83
2023/10/17 15:37:19;;;;;;;;;;;15.10;49.30;;;13.66;53.11;101648.94;12253513;19;19929;-84
2023/10/17 15:41:21;;;;;;;;;;;15.10;49.70;;;13.84;53.13;101676.00;12247616;19;20479;-84
2023/10/17 15:45:24;;;;;;;;;;;15.00;49.30;;;13.81;53.07;101682.28;12250504;19;19915;-84
2023/10/17 15:49:26;;;;;;;;;;;15.00;49.30;;;13.79;53.05;101699.03;12247845;19;19929;-84
2023/10/17 15:53:29;;;;;;;;;;;15.00;49.40;;;13.75;53.12;101693.09;12249974;19;19911;-83
2023/10/17 15:57:30;;;;;;;;;;;15.00;49.40;;;13.69;52.99;101685.53;12251389;19;19923;-85
2023/10/17 16:01:31;;;;;;;;;;;14.90;49.40;;;13.67;53.07;101679.53;12254893;19;19915;-83
2023/10/17 16:05:33;;;;;;;;;;;14.80;49.30;;;13.58;52.99;101677.38;12251577;19;19914;-84
2023/10/17 16:09:34;;;;;;;;;;;14.80;49.50;;;13.54;52.89;101683.72;12250490;19;19947;-84
2023/10/17 16:13:38;;;;;;;;;;;14.70;49.50;;;13.52;53.08;101689.06;12254376;19;19923;-84
2023/10/17 16:17:40;;;;;;;;;;;14.60;49.50;;;13.51;52.99;101684.75;12249379;19;19931;-84
2023/10/17 16:21:42;;;;;;;;;;;14.60;49.60;;;13.40;53.10;101668.72;12249480;19;19919;-85
2023/10/17 16:25:58;;;;;;;;;;;14.60;49.60;;;13.35;52.98;101662.84;12248841;19;19935;-85
2023/10/17 16:30:00;;;;;;;;;;;14.60;49.60;;;13.28;53.10;101651.81;12248772;19;19934;-86
2023/10/17 16:34:02;;;;;;;;;;;14.50;49.60;;;13.31;52.85;101663.91;12249862;19;19936;-85
2023/10/17 16:38:05;;;;;;;;;;;14.40;49.50;;;13.22;52.74;101663.44;12250639;19;19927;-86
2023/10/17 16:42:06;;;;;;;;;;;14.40;49.50;;;13.10;52.83;101653.59;12250052;19;20273;-85
2023/10/17 16:46:10;;;;;;;;;;;14.30;49.50;;;13.09;52.88;101666.75;12249304;19;19918;-85
2023/10/17 16:50:17;;;;;;;;;;;14.20;49.80;;;12.88;52.74;101652.94;12252329;19;19919;-83
2023/10/17 16:54:19;;;;;;;;;;;14.10;49.40;;;12.86;52.89;101665.31;12248630;19;19927;-85
2023/10/17 16:58:21;;;;;;;;;;;14.00;49.40;;;12.75;52.89;101663.22;12256975;19;19918;-84
2023/10/17 17:02:23;;;;;;;;;;;13.90;49.50;;;12.77;53.01;101680.56;12254887;19;19922;-85
2023/10/17 17:06:26;;;;;;;;;;;13.80;49.50;;;12.69;52.94;101680.09;12256637;19;19907;-86
2023/10/17 17:10:28;;;;;;;;;;;13.80;49.60;;;12.68;52.95;101675.75;12255520;19;19926;-84
2023/10/17 17:14:29;;;;;;;;;;;13.70;49.60;;;12.50;52.84;101653.06;12255543;19;20337;-85
2023/10/17 17:18:31;;;;;;;;;;;13.60;49.50;;;12.49;52.92;101667.94;12254880;19;19915;-85
2023/10/17 17:22:33;;;;;;;;;;;13.60;49.50;;;12.46;52.78;101668.09;12254474;19;20344;-85
2023/10/17 17:26:35;;;;;;;;;;;13.50;49.50;;;12.37;52.97;101658.06;12254341;19;19926;-85
2023/10/17 17:30:38;;;;;;;;;;;13.40;49.50;;;12.25;52.94;101661.25;12259006;19;19923;-84
2023/10/17 17:34:40;;;;;;;;;;;13.40;49.60;;;12.30;52.93;101683.69;12266334;19;19919;-84
2023/10/17 17:38:43;;;;;;;;;;;13.30;49.50;;;12.07;52.80;101658.59;12265757;19;20421;-85
2023/10/17 17:42:44;;;;;;;;;;;13.20;49.40;;;12.08;52.74;101672.53;12266762;19;19982;-85
2023/10/17 17:46:46;;;;;;;;;;;13.20;49.40;;;12.00;52.72;101680.72;12261831;19;19932;-85
2023/10/17 17:50:48;;;;;;;;;;;13.10;49.40;;;11.83;52.82;101662.31;12260644;19;19917;-84
2023/10/17 17:54:50;;;;;;;;;;;13.00;49.40;;;11.83;52.98;101664.91;12264417;19;20326;-84
2023/10/17 17:58:52;;;;;;;;;;;12.90;49.30;;;11.71;52.92;101668.91;12265534;19;19925;-83
2023/10/17 18:02:53;;;;;;;;;;;12.80;49.30;;;11.54;52.78;101663.59;12263768;19;19926;-84
2023/10/17 18:06:57;;;;;;;;;;;12.70;49.30;;;11.55;52.91;101679.22;12264771;19;20004;-85
2023/10/17 18:10:59;;;;;;;;;;;12.60;49.30;;;11.27;52.71;101656.88;12262059;19;19923;-85
2023/10/17 18:15:01;;;;;;;;;;;12.60;49.30;;;11.31;52.88;101665.44;12266385;19;19919;-84
2023/10/17 18:19:08;;;;;;;;;;;12.50;49.30;;;11.35;52.85;101687.09;12260122;19;20433;-85
2023/10/17 18:23:11;;;;;;;;;;;12.40;49.30;;;11.24;52.86;101684.94;12267144;19;19919;-85
2023/10/17 18:27:13;;;;;;;;;;;12.30;49.30;;;11.11;52.75;101681.13;12260736;19;19914;-84
2023/10/17 18:31:15;;;;;;;;;;;12.20;49.30;;;11.11;52.91;101704.66;12259005;19;20352;-84
2023/10/17 18:35:17;;;;;;;;;;;12.10;49.30;;;11.04;52.77;101696.22;12261973;19;19927;-85
2023/10/17 18:39:19;;;;;;;;;;;12.10;49.40;;;10.96;52.73;101691.28;12264563;19;19926;-85
2023/10/17 18:43:20;;;;;;;;;;;12.00;49.40;;;10.95;52.72;101699.22;12260014;19;19922;-85
2023/10/17 18:47:22;;;;;;;;;;;11.90;49.50;;;10.83;52.69;101685.75;12258858;19;19915;-85
2023/10/17 18:51:23;;;;;;;;;;;11.90;49.50;;;10.84;52.67;101683.97;12263782;19;19926;-84
2023/10/17 18:55:25;;;;;;;;;;;11.80;49.50;;;10.76;52.62;101676.44;12261080;19;20400;-84
2023/10/17 18:59:26;;;;;;;;;;;11.80;49.40;;;10.40;52.76;101627.41;12261227;19;19919;-85
2023/10/17 19:03:28;;;;;;;;;;;11.70;49.40;;;10.48;52.86;101649.75;12259894;19;19956;-84
2023/10/17 19:07:30;;;;;;;;;;;11.60;49.40;;;10.51;52.95;101658.31;12258981;19;19996;-85
2023/10/17 19:11:31;;;;;;;;;;;11.60;49.50;;;10.52;52.96;101665.22;12261040;19;20291;-84
2023/10/17 19:15:33;;;;;;;;;;;11.50;49.50;;;10.40;53.00;101645.69;12259418;19;19911;-84
2023/10/17 19:19:34;;;;;;;;;;;11.50;49.50;;;10.32;52.96;101647.75;12259547;19;19932;-84
2023/10/17 19:23:37;;;;;;;;;;;11.40;49.50;;;10.27;52.87;101647.06;12256975;19;19931;-83
2023/10/17 19:27:39;;;;;;;;;;;11.40;49.50;;;10.22;52.56;101662.03;12254719;19;19922;-83
2023/10/17 19:31:41;;;;;;;;;;;11.40;49.40;;;10.11;52.69;101667.66;12253400;19;19923;-83
2023/10/17 19:35:42;;;;;;;;;;;11.20;49.30;;;10.08;52.85;101674.75;12255497;19;19930;-85
2023/10/17 19:39:44;;;;;;;;;;;11.10;49.30;;;9.99;52.74;101665.53;12258406;19;19922;-83
2023/10/17 19:43:45;;;;;;;;;;;11.10;49.40;;;9.79;52.94;101636.72;12256026;19;19930;-85
2023/10/17 19:47:50;;;;;;;;;;;11.00;49.40;;;9.83;52.89;101656.53;12257108;19;20014;-85
2023/10/17 19:51:52;;;;;;;;;;;10.90;49.40;;;9.80;52.84;101654.06;12256361;19;20277;-85
2023/10/17 19:55:57;;;;;;;;;;;10.80;49.30;;;9.74;52.96;101658.59;12257405;19;21311;-84
2023/10/17 19:59:58;;;;;;;;;;;10.80;49.40;;;9.66;52.84;101650.19;12256499;19;19922;-84
2023/10/17 20:04:00;;;;;;;;;;;10.80;49.50;;;9.65;53.04;101645.88;12255596;19;19931;-85
2023/10/17 20:08:01;;;;;;;;;;;10.70;49.50;;;9.61;52.95;101639.06;12253073;19;19919;-85
2023/10/17 20:12:05;;;;;;;;;;;10.70;49.50;;;9.58;52.93;101639.19;12253322;19;19922;-85
2023/10/17 20:16:09;;;;;;;;;;;10.70;49.60;;;9.60;53.10;101640.00;12252307;19;19929;-85
2023/10/17 20:20:14;;;;;;;;;;;10.60;49.50;;;9.56;52.89;101648.84;12252427;19;19923;-84
2023/10/17 20:24:15;;;;;;;;;;;10.60;49.50;;;9.53;53.03;101641.09;12257726;19;19930;-85
2023/10/17 20:28:18;;;;;;;;;;;10.60;49.50;;;9.40;52.99;101625.06;12253425;19;20250;-85